sensor_id;sensor_type;location;lat;lon;timestamp;temperature;humidity
16627;DHT22;8427;52.204;7.202;2022-08-21T00:01:03;15.80;99.90
16627;DHT22;8427;52.204;7.202;2022-08-21T00:03:33;15.70;99.90
16627;DHT22;8427;52.204;7.202;2022-08-21T00:06:01;15.60;99.90
16627;DHT22;8427;52.204;7.202;2022-08-21T00:08:29;15.60;99.90
16627;DHT22;8427;52.204;7.202;2022-08-21T00:10:58;15.50;99.90
16627;DHT22;8427;52.204;7.202;2022-08-21T00:13:26;15.50;99.90
16627;DHT22;8427;52.204;7.202;2022-08-21T00:15:55;15.40;99.90
16627;DHT22;8427;52.204;7.202;2022-08-21T00:18:23;15.30;99.90
16627;DHT22;8427;52.204;7.202;2022-08-21T00:20:52;15.30;99.90
16627;DHT22;8427;52.204;7.202;2022-08-21T00:23:20;15.20;99.90
16627;DHT22;8427;52.204;7.202;2022-08-21T00:25:49;15.20;99.90
16627;DHT22;8427;52.204;7.202;2022-08-21T00:28:17;15.20;99.90
16627;DHT22;8427;52.204;7.202;2022-08-21T00:30:45;15.10;99.90
16627;DHT22;8427;52.204;7.202;2022-08-21T00:33:15;15.00;99.90
16627;DHT22;8427;52.204;7.202;2022-08-21T00:35:43;15.00;99.90
16627;DHT22;8427;52.204;7.202;2022-08-21T00:38:11;15.00;99.90
16627;DHT22;8427;52.204;7.202;2022-08-21T00:40:42;14.90;99.90
16627;DHT22;8427;52.204;7.202;2022-08-21T00:43:12;14.90;99.90
16627;DHT22;8427;52.204;7.202;2022-08-21T00:45:40;14.90;99.90
16627;DHT22;8427;52.204;7.202;2022-08-21T00:48:08;14.90;99.90
16627;DHT22;8427;52.204;7.202;2022-08-21T00:50:40;14.80;99.90
16627;DHT22;8427;52.204;7.202;2022-08-21T00:53:10;14.80;99.90
16627;DHT22;8427;52.204;7.202;2022-08-21T00:55:40;14.80;99.90
16627;DHT22;8427;52.204;7.202;2022-08-21T00:58:11;14.80;99.90
16627;DHT22;8427;52.204;7.202;2022-08-21T01:00:44;14.80;99.90
16627;DHT22;8427;52.204;7.202;2022-08-21T01:03:15;14.70;99.90
16627;DHT22;8427;52.204;7.202;2022-08-21T01:05:51;14.60;99.90
16627;DHT22;8427;52.204;7.202;2022-08-21T01:08:20;14.60;99.90
16627;DHT22;8427;52.204;7.202;2022-08-21T01:10:48;14.60;99.90
16627;DHT22;8427;52.204;7.202;2022-08-21T01:13:21;14.60;99.90
16627;DHT22;8427;52.204;7.202;2022-08-21T01:15:53;14.50;99.90
16627;DHT22;8427;52.204;7.202;2022-08-21T01:18:21;14.40;99.90
16627;DHT22;8427;52.204;7.202;2022-08-21T01:23:27;14.30;99.90
16627;DHT22;8427;52.204;7.202;2022-08-21T01:25:55;14.30;99.90
16627;DHT22;8427;52.204;7.202;2022-08-21T01:28:24;14.20;99.90
16627;DHT22;8427;52.204;7.202;2022-08-21T01:30:52;14.20;99.90
16627;DHT22;8427;52.204;7.202;2022-08-21T01:33:22;14.20;99.90
16627;DHT22;8427;52.204;7.202;2022-08-21T01:35:52;14.20;99.90
16627;DHT22;8427;52.204;7.202;2022-08-21T01:38:21;14.10;99.90
16627;DHT22;8427;52.204;7.202;2022-08-21T01:40:49;14.10;99.90
16627;DHT22;8427;52.204;7.202;2022-08-21T01:43:17;14.10;99.90
16627;DHT22;8427;52.204;7.202;2022-08-21T01:46:01;14.10;99.90
16627;DHT22;8427;52.204;7.202;2022-08-21T01:48:30;14.10;99.90
16627;DHT22;8427;52.204;7.202;2022-08-21T01:50:58;14.10;99.90
16627;DHT22;8427;52.204;7.202;2022-08-21T01:53:28;14.10;99.90
16627;DHT22;8427;52.204;7.202;2022-08-21T01:55:59;14.00;99.90
16627;DHT22;8427;52.204;7.202;2022-08-21T01:58:27;14.00;99.90
16627;DHT22;8427;52.204;7.202;2022-08-21T02:00:55;14.00;99.90
16627;DHT22;8427;52.204;7.202;2022-08-21T02:03:23;14.00;99.90
16627;DHT22;8427;52.204;7.202;2022-08-21T02:06:02;13.90;99.90
16627;DHT22;8427;52.204;7.202;2022-08-21T02:08:32;13.90;99.90
16627;DHT22;8427;52.204;7.202;2022-08-21T02:11:01;13.80;99.90
16627;DHT22;8427;52.204;7.202;2022-08-21T02:13:29;13.80;99.90
16627;DHT22;8427;52.204;7.202;2022-08-21T02:15:57;13.80;99.90
16627;DHT22;8427;52.204;7.202;2022-08-21T02:18:25;13.80;99.90
16627;DHT22;8427;52.204;7.202;2022-08-21T02:20:53;13.70;99.90
16627;DHT22;8427;52.204;7.202;2022-08-21T02:23:23;13.70;99.90
16627;DHT22;8427;52.204;7.202;2022-08-21T02:25:54;13.60;99.90
16627;DHT22;8427;52.204;7.202;2022-08-21T02:28:23;13.60;99.90
16627;DHT22;8427;52.204;7.202;2022-08-21T02:30:53;13.60;99.90
16627;DHT22;8427;52.204;7.202;2022-08-21T02:33:22;13.60;99.90
16627;DHT22;8427;52.204;7.202;2022-08-21T02:35:50;13.60;99.90
16627;DHT22;8427;52.204;7.202;2022-08-21T02:38:22;13.60;99.90
16627;DHT22;8427;52.204;7.202;2022-08-21T02:40:51;13.60;99.90
16627;DHT22;8427;52.204;7.202;2022-08-21T02:43:22;13.50;99.90
16627;DHT22;8427;52.204;7.202;2022-08-21T02:45:51;13.50;99.90
16627;DHT22;8427;52.204;7.202;2022-08-21T02:48:22;13.50;99.90
16627;DHT22;8427;52.204;7.202;2022-08-21T02:50:53;13.50;99.90
16627;DHT22;8427;52.204;7.202;2022-08-21T02:53:21;13.50;99.90
16627;DHT22;8427;52.204;7.202;2022-08-21T02:55:51;13.40;99.90
16627;DHT22;8427;52.204;7.202;2022-08-21T02:58:24;13.40;99.90
16627;DHT22;8427;52.204;7.202;2022-08-21T03:00:52;13.40;99.90
16627;DHT22;8427;52.204;7.202;2022-08-21T03:03:21;13.40;99.90
16627;DHT22;8427;52.204;7.202;2022-08-21T03:05:49;13.40;99.90
16627;DHT22;8427;52.204;7.202;2022-08-21T03:08:18;13.30;99.90
16627;DHT22;8427;52.204;7.202;2022-08-21T03:10:51;13.30;99.90
16627;DHT22;8427;52.204;7.202;2022-08-21T03:13:21;13.20;99.90
16627;DHT22;8427;52.204;7.202;2022-08-21T03:15:50;13.20;99.90
16627;DHT22;8427;52.204;7.202;2022-08-21T03:18:18;13.20;99.90
16627;DHT22;8427;52.204;7.202;2022-08-21T03:20:46;13.20;99.90
16627;DHT22;8427;52.204;7.202;2022-08-21T03:23:16;13.20;99.90
16627;DHT22;8427;52.204;7.202;2022-08-21T03:25:46;13.20;99.90
16627;DHT22;8427;52.204;7.202;2022-08-21T03:28:21;13.20;99.90
16627;DHT22;8427;52.204;7.202;2022-08-21T03:30:52;13.20;99.90
16627;DHT22;8427;52.204;7.202;2022-08-21T03:33:21;13.10;99.90
16627;DHT22;8427;52.204;7.202;2022-08-21T03:35:56;13.10;99.90
16627;DHT22;8427;52.204;7.202;2022-08-21T03:38:28;13.20;99.90
16627;DHT22;8427;52.204;7.202;2022-08-21T03:40:58;13.10;99.90
16627;DHT22;8427;52.204;7.202;2022-08-21T03:43:26;13.10;99.90
16627;DHT22;8427;52.204;7.202;2022-08-21T03:46:00;13.10;99.90
16627;DHT22;8427;52.204;7.202;2022-08-21T03:48:32;13.00;99.90
16627;DHT22;8427;52.204;7.202;2022-08-21T03:51:01;13.00;99.90
16627;DHT22;8427;52.204;7.202;2022-08-21T03:53:29;13.00;99.90
16627;DHT22;8427;52.204;7.202;2022-08-21T03:55:58;13.00;99.90
16627;DHT22;8427;52.204;7.202;2022-08-21T03:58:27;13.00;99.90
16627;DHT22;8427;52.204;7.202;2022-08-21T04:00:57;12.90;99.90
16627;DHT22;8427;52.204;7.202;2022-08-21T04:03:28;12.90;99.90
16627;DHT22;8427;52.204;7.202;2022-08-21T04:05:56;12.90;99.90
16627;DHT22;8427;52.204;7.202;2022-08-21T04:08:24;12.80;99.90
16627;DHT22;8427;52.204;7.202;2022-08-21T04:10:55;12.80;99.90
16627;DHT22;8427;52.204;7.202;2022-08-21T04:13:24;12.80;99.90
16627;DHT22;8427;52.204;7.202;2022-08-21T04:15:55;12.80;99.90
16627;DHT22;8427;52.204;7.202;2022-08-21T04:18:23;12.80;99.90
16627;DHT22;8427;52.204;7.202;2022-08-21T04:20:53;12.80;99.90
16627;DHT22;8427;52.204;7.202;2022-08-21T04:23:24;12.80;99.90
16627;DHT22;8427;52.204;7.202;2022-08-21T04:25:53;12.80;99.90
16627;DHT22;8427;52.204;7.202;2022-08-21T04:28:22;12.70;99.90
16627;DHT22;8427;52.204;7.202;2022-08-21T04:30:56;12.70;99.90
16627;DHT22;8427;52.204;7.202;2022-08-21T04:33:24;12.70;99.90
16627;DHT22;8427;52.204;7.202;2022-08-21T04:35:54;12.70;99.90
16627;DHT22;8427;52.204;7.202;2022-08-21T04:38:22;12.80;99.90
16627;DHT22;8427;52.204;7.202;2022-08-21T04:40:51;12.80;99.90
16627;DHT22;8427;52.204;7.202;2022-08-21T04:43:19;12.80;99.90
16627;DHT22;8427;52.204;7.202;2022-08-21T04:45:50;12.80;99.90
16627;DHT22;8427;52.204;7.202;2022-08-21T04:48:21;12.80;99.90
16627;DHT22;8427;52.204;7.202;2022-08-21T04:50:54;12.80;99.90
16627;DHT22;8427;52.204;7.202;2022-08-21T04:53:27;12.80;99.90
16627;DHT22;8427;52.204;7.202;2022-08-21T04:56:02;12.90;99.90
16627;DHT22;8427;52.204;7.202;2022-08-21T04:58:31;12.90;99.90
16627;DHT22;8427;52.204;7.202;2022-08-21T05:01:01;12.90;99.90
16627;DHT22;8427;52.204;7.202;2022-08-21T05:03:32;13.00;99.90
16627;DHT22;8427;52.204;7.202;2022-08-21T05:06:03;13.00;99.90
16627;DHT22;8427;52.204;7.202;2022-08-21T05:08:33;13.10;99.90
16627;DHT22;8427;52.204;7.202;2022-08-21T05:11:02;13.10;99.90
16627;DHT22;8427;52.204;7.202;2022-08-21T05:13:30;13.10;99.90
16627;DHT22;8427;52.204;7.202;2022-08-21T05:15:59;13.20;99.90
16627;DHT22;8427;52.204;7.202;2022-08-21T05:18:27;13.20;99.90
16627;DHT22;8427;52.204;7.202;2022-08-21T05:20:55;13.30;99.90
16627;DHT22;8427;52.204;7.202;2022-08-21T05:23:24;13.30;99.90
16627;DHT22;8427;52.204;7.202;2022-08-21T05:25:53;13.40;99.90
16627;DHT22;8427;52.204;7.202;2022-08-21T05:28:21;13.40;99.90
16627;DHT22;8427;52.204;7.202;2022-08-21T05:30:52;13.50;99.90
16627;DHT22;8427;52.204;7.202;2022-08-21T05:33:21;13.60;99.90
16627;DHT22;8427;52.204;7.202;2022-08-21T05:35:50;13.70;99.90
16627;DHT22;8427;52.204;7.202;2022-08-21T05:38:19;13.70;99.90
16627;DHT22;8427;52.204;7.202;2022-08-21T05:40:48;13.80;99.90
16627;DHT22;8427;52.204;7.202;2022-08-21T05:43:16;13.90;99.90
16627;DHT22;8427;52.204;7.202;2022-08-21T05:45:45;14.00;99.90
16627;DHT22;8427;52.204;7.202;2022-08-21T05:48:16;14.10;99.90
16627;DHT22;8427;52.204;7.202;2022-08-21T05:50:46;14.20;99.90
16627;DHT22;8427;52.204;7.202;2022-08-21T05:53:16;14.20;99.90
16627;DHT22;8427;52.204;7.202;2022-08-21T05:55:45;14.40;99.90
16627;DHT22;8427;52.204;7.202;2022-08-21T05:58:17;14.50;99.90
16627;DHT22;8427;52.204;7.202;2022-08-21T06:00:46;14.60;99.90
16627;DHT22;8427;52.204;7.202;2022-08-21T06:03:16;14.70;99.90
16627;DHT22;8427;52.204;7.202;2022-08-21T06:05:46;14.90;99.90
16627;DHT22;8427;52.204;7.202;2022-08-21T06:08:15;15.00;99.90
16627;DHT22;8427;52.204;7.202;2022-08-21T06:10:44;15.10;99.90
16627;DHT22;8427;52.204;7.202;2022-08-21T06:13:13;15.20;99.90
16627;DHT22;8427;52.204;7.202;2022-08-21T06:15:43;15.40;99.90
16627;DHT22;8427;52.204;7.202;2022-08-21T06:18:11;15.50;99.90
16627;DHT22;8427;52.204;7.202;2022-08-21T06:20:40;15.60;99.90
16627;DHT22;8427;52.204;7.202;2022-08-21T06:23:08;15.70;99.90
16627;DHT22;8427;52.204;7.202;2022-08-21T06:25:36;15.80;99.90
16627;DHT22;8427;52.204;7.202;2022-08-21T06:28:06;15.90;99.90
16627;DHT22;8427;52.204;7.202;2022-08-21T06:30:35;16.10;99.90
16627;DHT22;8427;52.204;7.202;2022-08-21T06:33:05;16.20;99.90
16627;DHT22;8427;52.204;7.202;2022-08-21T06:35:34;16.30;99.90
16627;DHT22;8427;52.204;7.202;2022-08-21T06:38:07;16.40;99.90
16627;DHT22;8427;52.204;7.202;2022-08-21T06:40:36;16.60;99.90
16627;DHT22;8427;52.204;7.202;2022-08-21T06:43:14;16.70;99.90
16627;DHT22;8427;52.204;7.202;2022-08-21T06:45:43;16.80;99.90
16627;DHT22;8427;52.204;7.202;2022-08-21T06:48:12;16.90;99.90
16627;DHT22;8427;52.204;7.202;2022-08-21T06:50:45;17.00;99.90
16627;DHT22;8427;52.204;7.202;2022-08-21T06:53:15;17.20;99.90
16627;DHT22;8427;52.204;7.202;2022-08-21T06:55:45;17.30;99.90
16627;DHT22;8427;52.204;7.202;2022-08-21T06:58:14;17.40;99.90
16627;DHT22;8427;52.204;7.202;2022-08-21T07:00:45;17.50;99.90
16627;DHT22;8427;52.204;7.202;2022-08-21T07:03:23;17.60;99.90
16627;DHT22;8427;52.204;7.202;2022-08-21T07:05:52;17.70;99.90
16627;DHT22;8427;52.204;7.202;2022-08-21T07:08:20;17.80;99.90
16627;DHT22;8427;52.204;7.202;2022-08-21T07:10:49;17.80;99.90
16627;DHT22;8427;52.204;7.202;2022-08-21T07:13:17;17.90;99.90
16627;DHT22;8427;52.204;7.202;2022-08-21T07:15:45;18.00;99.90
16627;DHT22;8427;52.204;7.202;2022-08-21T07:18:13;18.10;99.90
16627;DHT22;8427;52.204;7.202;2022-08-21T07:20:43;18.10;99.90
16627;DHT22;8427;52.204;7.202;2022-08-21T07:23:18;18.20;99.90
16627;DHT22;8427;52.204;7.202;2022-08-21T07:25:49;18.30;99.90
16627;DHT22;8427;52.204;7.202;2022-08-21T07:28:17;18.50;99.90
16627;DHT22;8427;52.204;7.202;2022-08-21T07:30:46;18.60;99.90
16627;DHT22;8427;52.204;7.202;2022-08-21T07:33:18;18.80;99.90
16627;DHT22;8427;52.204;7.202;2022-08-21T07:35:47;18.80;99.90
16627;DHT22;8427;52.204;7.202;2022-08-21T07:38:15;18.90;99.90
16627;DHT22;8427;52.204;7.202;2022-08-21T07:40:45;19.00;99.90
16627;DHT22;8427;52.204;7.202;2022-08-21T07:43:14;19.10;99.90
16627;DHT22;8427;52.204;7.202;2022-08-21T07:45:44;19.20;99.90
16627;DHT22;8427;52.204;7.202;2022-08-21T07:48:13;19.30;99.90
16627;DHT22;8427;52.204;7.202;2022-08-21T07:50:41;19.50;99.90
16627;DHT22;8427;52.204;7.202;2022-08-21T07:53:11;19.60;99.90
16627;DHT22;8427;52.204;7.202;2022-08-21T07:55:39;19.70;99.90
16627;DHT22;8427;52.204;7.202;2022-08-21T07:58:07;19.80;99.90
16627;DHT22;8427;52.204;7.202;2022-08-21T08:00:35;19.80;99.90
16627;DHT22;8427;52.204;7.202;2022-08-21T08:03:03;19.90;99.90
16627;DHT22;8427;52.204;7.202;2022-08-21T08:05:32;20.00;99.90
16627;DHT22;8427;52.204;7.202;2022-08-21T08:08:03;20.10;99.90
16627;DHT22;8427;52.204;7.202;2022-08-21T08:10:33;20.10;99.90
16627;DHT22;8427;52.204;7.202;2022-08-21T08:13:01;20.20;99.90
16627;DHT22;8427;52.204;7.202;2022-08-21T08:15:30;20.40;99.90
16627;DHT22;8427;52.204;7.202;2022-08-21T08:18:03;20.50;99.90
16627;DHT22;8427;52.204;7.202;2022-08-21T08:20:32;20.60;99.90
16627;DHT22;8427;52.204;7.202;2022-08-21T08:23:00;20.70;99.90
16627;DHT22;8427;52.204;7.202;2022-08-21T08:25:28;20.80;99.90
16627;DHT22;8427;52.204;7.202;2022-08-21T08:28:06;20.90;99.90
16627;DHT22;8427;52.204;7.202;2022-08-21T08:30:44;21.00;99.90
16627;DHT22;8427;52.204;7.202;2022-08-21T08:33:12;21.00;99.90
16627;DHT22;8427;52.204;7.202;2022-08-21T08:35:41;21.10;99.90
16627;DHT22;8427;52.204;7.202;2022-08-21T08:38:10;21.10;99.90
16627;DHT22;8427;52.204;7.202;2022-08-21T08:40:44;21.10;99.90
16627;DHT22;8427;52.204;7.202;2022-08-21T08:43:14;21.00;99.90
16627;DHT22;8427;52.204;7.202;2022-08-21T08:45:46;21.10;99.90
16627;DHT22;8427;52.204;7.202;2022-08-21T08:48:26;21.10;99.90
16627;DHT22;8427;52.204;7.202;2022-08-21T08:50:59;21.20;99.90
16627;DHT22;8427;52.204;7.202;2022-08-21T08:53:32;21.30;99.90
16627;DHT22;8427;52.204;7.202;2022-08-21T08:56:02;21.40;99.90
16627;DHT22;8427;52.204;7.202;2022-08-21T08:58:37;21.60;99.90
16627;DHT22;8427;52.204;7.202;2022-08-21T09:01:15;21.60;99.90
16627;DHT22;8427;52.204;7.202;2022-08-21T09:03:45;21.50;99.90
16627;DHT22;8427;52.204;7.202;2022-08-21T09:06:35;21.50;99.90
16627;DHT22;8427;52.204;7.202;2022-08-21T09:09:16;21.60;99.90
16627;DHT22;8427;52.204;7.202;2022-08-21T09:11:54;21.60;99.90
16627;DHT22;8427;52.204;7.202;2022-08-21T09:14:30;21.80;99.90
16627;DHT22;8427;52.204;7.202;2022-08-21T09:17:07;21.90;99.90
16627;DHT22;8427;52.204;7.202;2022-08-21T09:19:53;21.90;99.90
16627;DHT22;8427;52.204;7.202;2022-08-21T09:22:30;22.10;99.90
16627;DHT22;8427;52.204;7.202;2022-08-21T09:25:07;22.10;99.90
16627;DHT22;8427;52.204;7.202;2022-08-21T09:27:36;22.10;99.90
16627;DHT22;8427;52.204;7.202;2022-08-21T09:30:07;22.10;99.90
16627;DHT22;8427;52.204;7.202;2022-08-21T09:32:38;22.00;99.90
16627;DHT22;8427;52.204;7.202;2022-08-21T09:35:10;22.10;99.90
16627;DHT22;8427;52.204;7.202;2022-08-21T09:37:49;22.20;99.90
16627;DHT22;8427;52.204;7.202;2022-08-21T09:40:29;22.20;99.90
16627;DHT22;8427;52.204;7.202;2022-08-21T09:42:59;22.40;99.90
16627;DHT22;8427;52.204;7.202;2022-08-21T09:45:30;22.50;99.90
16627;DHT22;8427;52.204;7.202;2022-08-21T09:48:11;22.40;99.90
16627;DHT22;8427;52.204;7.202;2022-08-21T09:50:40;22.60;99.90
16627;DHT22;8427;52.204;7.202;2022-08-21T09:53:16;22.50;99.90
16627;DHT22;8427;52.204;7.202;2022-08-21T09:55:51;22.40;99.90
16627;DHT22;8427;52.204;7.202;2022-08-21T09:58:38;22.30;99.90
16627;DHT22;8427;52.204;7.202;2022-08-21T10:01:14;22.40;99.90
16627;DHT22;8427;52.204;7.202;2022-08-21T10:03:42;22.50;99.90
16627;DHT22;8427;52.204;7.202;2022-08-21T10:06:22;22.50;99.90
16627;DHT22;8427;52.204;7.202;2022-08-21T10:08:50;22.50;99.90
16627;DHT22;8427;52.204;7.202;2022-08-21T10:11:24;22.70;99.90
16627;DHT22;8427;52.204;7.202;2022-08-21T10:14:01;22.90;99.90
16627;DHT22;8427;52.204;7.202;2022-08-21T10:16:40;22.90;99.90
16627;DHT22;8427;52.204;7.202;2022-08-21T10:19:18;22.80;99.90
16627;DHT22;8427;52.204;7.202;2022-08-21T10:21:59;22.90;99.90
16627;DHT22;8427;52.204;7.202;2022-08-21T10:24:32;23.10;99.90
16627;DHT22;8427;52.204;7.202;2022-08-21T10:27:14;23.20;99.90
16627;DHT22;8427;52.204;7.202;2022-08-21T10:29:50;23.20;99.90
16627;DHT22;8427;52.204;7.202;2022-08-21T10:32:49;23.00;99.90
16627;DHT22;8427;52.204;7.202;2022-08-21T10:35:24;23.10;99.90
16627;DHT22;8427;52.204;7.202;2022-08-21T10:38:15;23.10;99.90
16627;DHT22;8427;52.204;7.202;2022-08-21T10:41:13;23.10;99.90
16627;DHT22;8427;52.204;7.202;2022-08-21T10:43:48;23.20;99.90
16627;DHT22;8427;52.204;7.202;2022-08-21T10:48:55;23.60;99.90
16627;DHT22;8427;52.204;7.202;2022-08-21T10:51:31;23.60;99.90
16627;DHT22;8427;52.204;7.202;2022-08-21T10:54:05;23.60;99.90
16627;DHT22;8427;52.204;7.202;2022-08-21T10:56:40;23.70;99.90
16627;DHT22;8427;52.204;7.202;2022-08-21T10:59:26;23.80;99.90
16627;DHT22;8427;52.204;7.202;2022-08-21T11:02:03;24.00;99.90
16627;DHT22;8427;52.204;7.202;2022-08-21T11:04:48;24.10;99.90
16627;DHT22;8427;52.204;7.202;2022-08-21T11:07:21;24.10;99.90
16627;DHT22;8427;52.204;7.202;2022-08-21T11:09:51;24.20;99.90
16627;DHT22;8427;52.204;7.202;2022-08-21T11:12:26;24.20;99.90
16627;DHT22;8427;52.204;7.202;2022-08-21T11:14:58;24.10;99.90
16627;DHT22;8427;52.204;7.202;2022-08-21T11:17:33;24.20;99.90
16627;DHT22;8427;52.204;7.202;2022-08-21T11:20:12;24.00;99.90
16627;DHT22;8427;52.204;7.202;2022-08-21T11:22:47;24.10;99.90
16627;DHT22;8427;52.204;7.202;2022-08-21T11:25:26;24.40;99.90
16627;DHT22;8427;52.204;7.202;2022-08-21T11:30:47;24.40;99.90
16627;DHT22;8427;52.204;7.202;2022-08-21T11:33:30;24.60;99.90
16627;DHT22;8427;52.204;7.202;2022-08-21T11:36:10;24.60;99.90
16627;DHT22;8427;52.204;7.202;2022-08-21T11:38:42;24.60;99.90
16627;DHT22;8427;52.204;7.202;2022-08-21T11:41:24;24.50;99.90
16627;DHT22;8427;52.204;7.202;2022-08-21T11:44:02;24.50;99.90
16627;DHT22;8427;52.204;7.202;2022-08-21T11:46:46;24.60;99.90
16627;DHT22;8427;52.204;7.202;2022-08-21T11:49:26;24.50;99.90
16627;DHT22;8427;52.204;7.202;2022-08-21T11:52:05;24.20;99.90
16627;DHT22;8427;52.204;7.202;2022-08-21T11:54:38;24.20;99.90
16627;DHT22;8427;52.204;7.202;2022-08-21T11:57:15;24.20;99.90
16627;DHT22;8427;52.204;7.202;2022-08-21T11:59:48;24.30;99.90
16627;DHT22;8427;52.204;7.202;2022-08-21T12:02:21;24.40;99.90
16627;DHT22;8427;52.204;7.202;2022-08-21T12:04:55;24.30;99.90
16627;DHT22;8427;52.204;7.202;2022-08-21T12:07:34;24.20;99.90
16627;DHT22;8427;52.204;7.202;2022-08-21T12:10:06;23.90;99.90
16627;DHT22;8427;52.204;7.202;2022-08-21T12:12:36;23.70;99.90
16627;DHT22;8427;52.204;7.202;2022-08-21T12:15:15;23.80;99.90
16627;DHT22;8427;52.204;7.202;2022-08-21T12:17:54;23.90;99.90
16627;DHT22;8427;52.204;7.202;2022-08-21T12:20:38;23.60;99.90
16627;DHT22;8427;52.204;7.202;2022-08-21T12:23:26;23.80;99.90
16627;DHT22;8427;52.204;7.202;2022-08-21T12:26:11;24.10;99.90
16627;DHT22;8427;52.204;7.202;2022-08-21T12:28:41;24.30;99.90
16627;DHT22;8427;52.204;7.202;2022-08-21T12:31:24;24.40;99.90
16627;DHT22;8427;52.204;7.202;2022-08-21T12:33:57;24.80;99.90
16627;DHT22;8427;52.204;7.202;2022-08-21T12:36:34;25.00;99.90
16627;DHT22;8427;52.204;7.202;2022-08-21T12:39:12;25.20;99.90
16627;DHT22;8427;52.204;7.202;2022-08-21T12:41:47;25.30;99.90
16627;DHT22;8427;52.204;7.202;2022-08-21T12:44:17;25.50;99.90
16627;DHT22;8427;52.204;7.202;2022-08-21T12:46:54;25.90;99.90
16627;DHT22;8427;52.204;7.202;2022-08-21T12:49:27;26.00;99.90
16627;DHT22;8427;52.204;7.202;2022-08-21T12:52:01;26.10;99.90
16627;DHT22;8427;52.204;7.202;2022-08-21T12:54:38;25.90;99.90
16627;DHT22;8427;52.204;7.202;2022-08-21T12:57:07;25.50;99.90
16627;DHT22;8427;52.204;7.202;2022-08-21T12:59:39;25.80;99.90
16627;DHT22;8427;52.204;7.202;2022-08-21T13:02:15;26.20;99.90
16627;DHT22;8427;52.204;7.202;2022-08-21T13:04:45;26.40;99.90
16627;DHT22;8427;52.204;7.202;2022-08-21T13:07:22;26.40;99.90
16627;DHT22;8427;52.204;7.202;2022-08-21T13:09:56;26.20;99.90
16627;DHT22;8427;52.204;7.202;2022-08-21T13:12:25;26.20;99.90
16627;DHT22;8427;52.204;7.202;2022-08-21T13:15:02;26.10;99.90
16627;DHT22;8427;52.204;7.202;2022-08-21T13:17:36;25.70;99.90
16627;DHT22;8427;52.204;7.202;2022-08-21T13:20:10;25.80;99.90
16627;DHT22;8427;52.204;7.202;2022-08-21T13:22:46;26.00;99.90
16627;DHT22;8427;52.204;7.202;2022-08-21T13:25:18;25.70;99.90
16627;DHT22;8427;52.204;7.202;2022-08-21T13:27:59;25.40;99.90
16627;DHT22;8427;52.204;7.202;2022-08-21T13:30:28;25.50;99.90
16627;DHT22;8427;52.204;7.202;2022-08-21T13:32:58;25.60;99.90
16627;DHT22;8427;52.204;7.202;2022-08-21T13:35:31;25.40;99.90
16627;DHT22;8427;52.204;7.202;2022-08-21T13:38:03;25.10;99.90
16627;DHT22;8427;52.204;7.202;2022-08-21T13:40:44;25.00;99.90
16627;DHT22;8427;52.204;7.202;2022-08-21T13:43:18;25.10;99.90
16627;DHT22;8427;52.204;7.202;2022-08-21T13:45:49;25.00;99.90
16627;DHT22;8427;52.204;7.202;2022-08-21T13:48:17;25.30;99.90
16627;DHT22;8427;52.204;7.202;2022-08-21T13:50:46;25.20;99.90
16627;DHT22;8427;52.204;7.202;2022-08-21T13:53:23;25.10;99.90
16627;DHT22;8427;52.204;7.202;2022-08-21T13:55:52;25.00;99.90
16627;DHT22;8427;52.204;7.202;2022-08-21T13:58:27;25.10;99.90
16627;DHT22;8427;52.204;7.202;2022-08-21T14:00:58;25.20;99.90
16627;DHT22;8427;52.204;7.202;2022-08-21T14:03:35;25.10;99.90
16627;DHT22;8427;52.204;7.202;2022-08-21T14:06:11;25.30;99.90
16627;DHT22;8427;52.204;7.202;2022-08-21T14:08:40;25.30;99.90
16627;DHT22;8427;52.204;7.202;2022-08-21T14:11:12;25.60;99.90
16627;DHT22;8427;52.204;7.202;2022-08-21T14:13:43;25.70;99.90
16627;DHT22;8427;52.204;7.202;2022-08-21T14:16:16;26.00;99.90
16627;DHT22;8427;52.204;7.202;2022-08-21T14:18:52;26.10;99.90
16627;DHT22;8427;52.204;7.202;2022-08-21T14:21:32;26.60;99.90
16627;DHT22;8427;52.204;7.202;2022-08-21T14:24:07;26.90;99.90
16627;DHT22;8427;52.204;7.202;2022-08-21T14:26:44;27.00;99.90
16627;DHT22;8427;52.204;7.202;2022-08-21T14:29:14;26.90;99.90
16627;DHT22;8427;52.204;7.202;2022-08-21T14:31:49;26.60;99.90
16627;DHT22;8427;52.204;7.202;2022-08-21T14:34:17;26.50;99.90
16627;DHT22;8427;52.204;7.202;2022-08-21T14:36:46;26.20;99.90
16627;DHT22;8427;52.204;7.202;2022-08-21T14:39:15;26.20;99.90
16627;DHT22;8427;52.204;7.202;2022-08-21T14:41:46;26.10;99.90
16627;DHT22;8427;52.204;7.202;2022-08-21T14:44:16;26.10;99.90
16627;DHT22;8427;52.204;7.202;2022-08-21T14:46:46;26.00;99.90
16627;DHT22;8427;52.204;7.202;2022-08-21T14:49:24;25.90;99.90
16627;DHT22;8427;52.204;7.202;2022-08-21T14:51:54;26.00;99.90
16627;DHT22;8427;52.204;7.202;2022-08-21T14:54:25;26.00;99.90
16627;DHT22;8427;52.204;7.202;2022-08-21T14:57:03;26.10;99.90
16627;DHT22;8427;52.204;7.202;2022-08-21T14:59:32;25.90;99.90
16627;DHT22;8427;52.204;7.202;2022-08-21T15:02:01;25.90;99.90
16627;DHT22;8427;52.204;7.202;2022-08-21T15:04:31;25.90;99.90
16627;DHT22;8427;52.204;7.202;2022-08-21T15:06:59;25.80;99.90
16627;DHT22;8427;52.204;7.202;2022-08-21T15:09:27;25.80;99.90
16627;DHT22;8427;52.204;7.202;2022-08-21T15:11:58;26.00;99.90
16627;DHT22;8427;52.204;7.202;2022-08-21T15:14:29;26.20;99.90
16627;DHT22;8427;52.204;7.202;2022-08-21T15:16:58;26.30;99.90
16627;DHT22;8427;52.204;7.202;2022-08-21T15:19:27;26.30;99.90
16627;DHT22;8427;52.204;7.202;2022-08-21T15:21:56;26.40;99.90
16627;DHT22;8427;52.204;7.202;2022-08-21T15:24:25;26.40;99.90
16627;DHT22;8427;52.204;7.202;2022-08-21T15:26:54;26.50;99.90
16627;DHT22;8427;52.204;7.202;2022-08-21T15:29:24;26.60;99.90
16627;DHT22;8427;52.204;7.202;2022-08-21T15:32:00;26.70;99.90
16627;DHT22;8427;52.204;7.202;2022-08-21T15:34:32;26.40;99.90
16627;DHT22;8427;52.204;7.202;2022-08-21T15:37:00;26.40;99.90
16627;DHT22;8427;52.204;7.202;2022-08-21T15:39:28;26.40;99.90
16627;DHT22;8427;52.204;7.202;2022-08-21T15:42:05;26.30;99.90
16627;DHT22;8427;52.204;7.202;2022-08-21T15:44:39;26.20;99.90
16627;DHT22;8427;52.204;7.202;2022-08-21T15:47:12;26.10;99.90
16627;DHT22;8427;52.204;7.202;2022-08-21T15:49:40;26.00;99.90
16627;DHT22;8427;52.204;7.202;2022-08-21T15:52:11;25.90;99.90
16627;DHT22;8427;52.204;7.202;2022-08-21T15:54:40;25.90;99.90
16627;DHT22;8427;52.204;7.202;2022-08-21T15:57:09;25.70;99.90
16627;DHT22;8427;52.204;7.202;2022-08-21T15:59:41;25.60;99.90
16627;DHT22;8427;52.204;7.202;2022-08-21T16:02:14;25.60;99.90
16627;DHT22;8427;52.204;7.202;2022-08-21T16:04:43;25.60;99.90
16627;DHT22;8427;52.204;7.202;2022-08-21T16:07:11;25.60;99.90
16627;DHT22;8427;52.204;7.202;2022-08-21T16:09:39;25.60;99.90
16627;DHT22;8427;52.204;7.202;2022-08-21T16:12:10;25.70;99.90
16627;DHT22;8427;52.204;7.202;2022-08-21T16:14:40;25.60;99.90
16627;DHT22;8427;52.204;7.202;2022-08-21T16:17:09;25.70;99.90
16627;DHT22;8427;52.204;7.202;2022-08-21T16:19:37;25.50;99.90
16627;DHT22;8427;52.204;7.202;2022-08-21T16:22:05;25.40;99.90